sensor_id;sensor_type;location;lat;lon;timestamp;P1;durP1;ratioP1;P2;durP2;ratioP2
9559;SDS011;4818;50.860;4.648;2022-11-25T00:01:20;13.32;;;0.85;;
9559;SDS011;4818;50.860;4.648;2022-11-25T00:03:47;13.45;;;1.75;;
9559;SDS011;4818;50.860;4.648;2022-11-25T00:06:14;11.77;;;0.80;;
9559;SDS011;4818;50.860;4.648;2022-11-25T00:08:41;13.48;;;1.58;;
9559;SDS011;4818;50.860;4.648;2022-11-25T00:11:08;17.27;;;1.60;;
9559;SDS011;4818;50.860;4.648;2022-11-25T00:13:35;12.57;;;1.63;;
9559;SDS011;4818;50.860;4.648;2022-11-25T00:16:02;14.88;;;2.20;;
9559;SDS011;4818;50.860;4.648;2022-11-25T00:18:29;17.13;;;1.63;;
9559;SDS011;4818;50.860;4.648;2022-11-25T00:20:55;14.73;;;1.77;;
9559;SDS011;4818;50.860;4.648;2022-11-25T00:23:22;16.33;;;1.80;;
9559;SDS011;4818;50.860;4.648;2022-11-25T00:25:48;13.48;;;1.85;;
9559;SDS011;4818;50.860;4.648;2022-11-25T00:28:14;10.90;;;1.15;;
9559;SDS011;4818;50.860;4.648;2022-11-25T00:30:42;17.20;;;2.05;;
9559;SDS011;4818;50.860;4.648;2022-11-25T00:33:09;17.02;;;1.63;;
9559;SDS011;4818;50.860;4.648;2022-11-25T00:35:35;5.72;;;0.80;;
9559;SDS011;4818;50.860;4.648;2022-11-25T00:38:01;14.07;;;1.55;;
9559;SDS011;4818;50.860;4.648;2022-11-25T00:40:27;11.45;;;1.77;;
9559;SDS011;4818;50.860;4.648;2022-11-25T00:42:53;14.07;;;2.47;;
9559;SDS011;4818;50.860;4.648;2022-11-25T00:45:49;7.82;;;1.33;;
9559;SDS011;4818;50.860;4.648;2022-11-25T00:48:15;13.60;;;1.38;;
9559;SDS011;4818;50.860;4.648;2022-11-25T00:50:42;12.13;;;1.48;;
9559;SDS011;4818;50.860;4.648;2022-11-25T00:53:08;16.75;;;1.48;;
9559;SDS011;4818;50.860;4.648;2022-11-25T00:55:34;16.10;;;2.03;;
9559;SDS011;4818;50.860;4.648;2022-11-25T00:58:20;14.75;;;1.23;;
9559;SDS011;4818;50.860;4.648;2022-11-25T01:00:47;15.73;;;1.90;;
9559;SDS011;4818;50.860;4.648;2022-11-25T01:03:13;16.33;;;1.23;;
9559;SDS011;4818;50.860;4.648;2022-11-25T01:05:39;13.70;;;1.45;;
9559;SDS011;4818;50.860;4.648;2022-11-25T01:08:06;11.20;;;1.95;;
9559;SDS011;4818;50.860;4.648;2022-11-25T01:10:32;9.85;;;1.42;;
9559;SDS011;4818;50.860;4.648;2022-11-25T01:12:58;17.30;;;1.42;;
9559;SDS011;4818;50.860;4.648;2022-11-25T01:15:24;11.15;;;0.85;;
9559;SDS011;4818;50.860;4.648;2022-11-25T01:17:50;16.15;;;1.63;;
9559;SDS011;4818;50.860;4.648;2022-11-25T01:20:16;17.42;;;1.90;;
9559;SDS011;4818;50.860;4.648;2022-11-25T01:22:43;8.00;;;0.75;;
9559;SDS011;4818;50.860;4.648;2022-11-25T01:25:09;3.63;;;0.20;;
9559;SDS011;4818;50.860;4.648;2022-11-25T01:27:35;3.13;;;0.20;;
9559;SDS011;4818;50.860;4.648;2022-11-25T01:30:07;8.45;;;0.22;;
9559;SDS011;4818;50.860;4.648;2022-11-25T01:32:33;2.72;;;0.20;;
9559;SDS011;4818;50.860;4.648;2022-11-25T01:34:59;3.38;;;0.60;;
9559;SDS011;4818;50.860;4.648;2022-11-25T01:37:26;3.80;;;0.25;;
9559;SDS011;4818;50.860;4.648;2022-11-25T01:39:52;1.52;;;0.30;;
9559;SDS011;4818;50.860;4.648;2022-11-25T01:42:18;8.65;;;0.30;;
9559;SDS011;4818;50.860;4.648;2022-11-25T01:45:06;6.85;;;0.20;;
9559;SDS011;4818;50.860;4.648;2022-11-25T01:47:31;2.30;;;0.10;;
9559;SDS011;4818;50.860;4.648;2022-11-25T01:49:59;1.50;;;0.10;;
9559;SDS011;4818;50.860;4.648;2022-11-25T01:52:28;2.60;;;0.32;;
9559;SDS011;4818;50.860;4.648;2022-11-25T01:54:57;2.30;;;0.10;;
9559;SDS011;4818;50.860;4.648;2022-11-25T01:57:46;2.33;;;0.30;;
9559;SDS011;4818;50.860;4.648;2022-11-25T02:00:11;2.25;;;0.20;;
9559;SDS011;4818;50.860;4.648;2022-11-25T02:02:37;0.47;;;0.10;;
9559;SDS011;4818;50.860;4.648;2022-11-25T02:05:08;2.95;;;0.17;;
9559;SDS011;4818;50.860;4.648;2022-11-25T02:07:38;4.57;;;0.30;;
9559;SDS011;4818;50.860;4.648;2022-11-25T02:10:13;2.53;;;0.10;;
9559;SDS011;4818;50.860;4.648;2022-11-25T02:12:40;1.35;;;0.10;;
9559;SDS011;4818;50.860;4.648;2022-11-25T02:15:08;5.07;;;0.30;;
9559;SDS011;4818;50.860;4.648;2022-11-25T02:17:34;1.85;;;0.10;;
9559;SDS011;4818;50.860;4.648;2022-11-25T02:20:10;1.38;;;0.10;;
9559;SDS011;4818;50.860;4.648;2022-11-25T02:22:58;1.98;;;0.20;;
9559;SDS011;4818;50.860;4.648;2022-11-25T02:25:27;2.83;;;0.25;;
9559;SDS011;4818;50.860;4.648;2022-11-25T02:28:04;2.77;;;0.20;;
9559;SDS011;4818;50.860;4.648;2022-11-25T02:30:32;1.83;;;0.10;;
9559;SDS011;4818;50.860;4.648;2022-11-25T02:32:58;2.33;;;0.10;;
9559;SDS011;4818;50.860;4.648;2022-11-25T02:35:29;1.33;;;0.20;;
9559;SDS011;4818;50.860;4.648;2022-11-25T02:37:57;0.45;;;0.10;;
9559;SDS011;4818;50.860;4.648;2022-11-25T02:40:25;2.00;;;0.15;;
9559;SDS011;4818;50.860;4.648;2022-11-25T02:42:52;3.15;;;0.10;;
9559;SDS011;4818;50.860;4.648;2022-11-25T02:45:20;4.63;;;0.10;;
9559;SDS011;4818;50.860;4.648;2022-11-25T02:47:48;1.42;;;0.10;;
9559;SDS011;4818;50.860;4.648;2022-11-25T02:50:14;2.60;;;0.20;;
9559;SDS011;4818;50.860;4.648;2022-11-25T02:52:40;4.28;;;1.05;;
9559;SDS011;4818;50.860;4.648;2022-11-25T02:55:07;3.08;;;0.10;;
9559;SDS011;4818;50.860;4.648;2022-11-25T02:57:33;1.95;;;0.25;;
9559;SDS011;4818;50.860;4.648;2022-11-25T02:59:59;6.40;;;0.10;;
9559;SDS011;4818;50.860;4.648;2022-11-25T03:02:25;0.88;;;0.10;;
9559;SDS011;4818;50.860;4.648;2022-11-25T03:04:52;2.47;;;0.10;;
9559;SDS011;4818;50.860;4.648;2022-11-25T03:07:18;4.38;;;0.13;;
9559;SDS011;4818;50.860;4.648;2022-11-25T03:09:44;3.38;;;0.38;;
9559;SDS011;4818;50.860;4.648;2022-11-25T03:12:10;5.07;;;0.20;;
9559;SDS011;4818;50.860;4.648;2022-11-25T03:14:43;3.83;;;0.40;;
9559;SDS011;4818;50.860;4.648;2022-11-25T03:17:09;2.47;;;0.30;;
9559;SDS011;4818;50.860;4.648;2022-11-25T03:19:35;1.20;;;0.20;;
9559;SDS011;4818;50.860;4.648;2022-11-25T03:22:02;6.45;;;0.17;;
9559;SDS011;4818;50.860;4.648;2022-11-25T03:24:28;1.35;;;0.35;;
9559;SDS011;4818;50.860;4.648;2022-11-25T03:26:55;2.35;;;0.20;;
9559;SDS011;4818;50.860;4.648;2022-11-25T03:29:21;3.33;;;0.17;;
9559;SDS011;4818;50.860;4.648;2022-11-25T03:31:47;3.33;;;0.30;;
9559;SDS011;4818;50.860;4.648;2022-11-25T03:34:13;3.00;;;0.10;;
9559;SDS011;4818;50.860;4.648;2022-11-25T03:36:40;0.90;;;0.20;;
9559;SDS011;4818;50.860;4.648;2022-11-25T03:39:06;5.43;;;0.30;;
9559;SDS011;4818;50.860;4.648;2022-11-25T03:41:32;1.30;;;0.20;;
9559;SDS011;4818;50.860;4.648;2022-11-25T03:43:58;1.95;;;0.20;;
9559;SDS011;4818;50.860;4.648;2022-11-25T03:46:25;3.08;;;0.32;;
9559;SDS011;4818;50.860;4.648;2022-11-25T03:48:51;7.18;;;0.65;;
9559;SDS011;4818;50.860;4.648;2022-11-25T03:51:17;2.65;;;0.20;;
9559;SDS011;4818;50.860;4.648;2022-11-25T03:53:43;4.30;;;0.40;;
9559;SDS011;4818;50.860;4.648;2022-11-25T03:56:10;5.25;;;0.40;;
9559;SDS011;4818;50.860;4.648;2022-11-25T03:58:36;4.38;;;1.10;;
9559;SDS011;4818;50.860;4.648;2022-11-25T04:01:02;2.25;;;0.57;;
9559;SDS011;4818;50.860;4.648;2022-11-25T04:03:29;7.45;;;0.73;;
9559;SDS011;4818;50.860;4.648;2022-11-25T04:05:55;5.80;;;0.30;;
9559;SDS011;4818;50.860;4.648;2022-11-25T04:08:22;2.78;;;0.22;;
9559;SDS011;4818;50.860;4.648;2022-11-25T04:10:48;6.88;;;0.35;;
9559;SDS011;4818;50.860;4.648;2022-11-25T04:13:15;4.18;;;0.52;;
9559;SDS011;4818;50.860;4.648;2022-11-25T04:15:44;4.68;;;0.40;;
9559;SDS011;4818;50.860;4.648;2022-11-25T04:18:11;6.65;;;0.70;;
9559;SDS011;4818;50.860;4.648;2022-11-25T04:20:38;4.72;;;0.40;;
9559;SDS011;4818;50.860;4.648;2022-11-25T04:23:04;10.40;;;0.60;;
9559;SDS011;4818;50.860;4.648;2022-11-25T04:25:31;6.18;;;0.50;;
9559;SDS011;4818;50.860;4.648;2022-11-25T04:27:57;4.40;;;0.68;;
9559;SDS011;4818;50.860;4.648;2022-11-25T04:30:23;7.75;;;0.82;;
9559;SDS011;4818;50.860;4.648;2022-11-25T04:32:50;14.35;;;0.77;;
9559;SDS011;4818;50.860;4.648;2022-11-25T04:35:16;7.95;;;0.68;;
9559;SDS011;4818;50.860;4.648;2022-11-25T04:37:42;9.77;;;1.15;;
9559;SDS011;4818;50.860;4.648;2022-11-25T04:40:08;9.00;;;1.13;;
9559;SDS011;4818;50.860;4.648;2022-11-25T04:42:35;12.80;;;1.08;;
9559;SDS011;4818;50.860;4.648;2022-11-25T04:47:33;8.38;;;0.95;;
9559;SDS011;4818;50.860;4.648;2022-11-25T04:49:59;12.95;;;1.00;;
9559;SDS011;4818;50.860;4.648;2022-11-25T04:52:26;7.32;;;2.03;;
9559;SDS011;4818;50.860;4.648;2022-11-25T04:54:52;8.30;;;1.17;;
9559;SDS011;4818;50.860;4.648;2022-11-25T04:57:18;11.10;;;0.90;;
9559;SDS011;4818;50.860;4.648;2022-11-25T04:59:45;16.17;;;1.05;;
9559;SDS011;4818;50.860;4.648;2022-11-25T05:02:15;4.45;;;0.77;;
9559;SDS011;4818;50.860;4.648;2022-11-25T05:04:42;4.18;;;0.95;;
9559;SDS011;4818;50.860;4.648;2022-11-25T05:07:09;9.73;;;0.80;;
9559;SDS011;4818;50.860;4.648;2022-11-25T05:09:35;9.30;;;1.25;;
9559;SDS011;4818;50.860;4.648;2022-11-25T05:12:02;17.95;;;1.60;;
9559;SDS011;4818;50.860;4.648;2022-11-25T05:14:28;13.10;;;1.20;;
9559;SDS011;4818;50.860;4.648;2022-11-25T05:16:54;14.38;;;1.70;;
9559;SDS011;4818;50.860;4.648;2022-11-25T05:19:21;16.17;;;1.88;;
9559;SDS011;4818;50.860;4.648;2022-11-25T05:21:47;7.25;;;0.70;;
9559;SDS011;4818;50.860;4.648;2022-11-25T05:24:13;7.13;;;1.33;;
9559;SDS011;4818;50.860;4.648;2022-11-25T05:26:39;7.65;;;0.90;;
9559;SDS011;4818;50.860;4.648;2022-11-25T05:29:06;10.27;;;0.90;;
9559;SDS011;4818;50.860;4.648;2022-11-25T05:31:32;9.13;;;1.00;;
9559;SDS011;4818;50.860;4.648;2022-11-25T05:33:59;4.22;;;1.00;;
9559;SDS011;4818;50.860;4.648;2022-11-25T05:36:26;8.88;;;1.63;;
9559;SDS011;4818;50.860;4.648;2022-11-25T05:38:52;6.85;;;0.82;;
9559;SDS011;4818;50.860;4.648;2022-11-25T05:41:18;6.10;;;1.00;;
9559;SDS011;4818;50.860;4.648;2022-11-25T05:43:45;5.60;;;2.13;;
9559;SDS011;4818;50.860;4.648;2022-11-25T05:46:11;14.80;;;1.52;;
9559;SDS011;4818;50.860;4.648;2022-11-25T05:48:38;10.07;;;1.30;;
9559;SDS011;4818;50.860;4.648;2022-11-25T05:51:04;10.30;;;1.10;;
9559;SDS011;4818;50.860;4.648;2022-11-25T05:53:30;6.72;;;0.95;;
9559;SDS011;4818;50.860;4.648;2022-11-25T05:55:58;9.82;;;2.00;;
9559;SDS011;4818;50.860;4.648;2022-11-25T05:58:24;8.30;;;1.65;;
9559;SDS011;4818;50.860;4.648;2022-11-25T06:00:51;14.43;;;1.35;;
9559;SDS011;4818;50.860;4.648;2022-11-25T06:03:17;6.05;;;0.68;;
9559;SDS011;4818;50.860;4.648;2022-11-25T06:05:43;6.40;;;1.13;;
9559;SDS011;4818;50.860;4.648;2022-11-25T06:08:10;13.07;;;1.00;;
9559;SDS011;4818;50.860;4.648;2022-11-25T06:10:39;4.03;;;0.98;;
9559;SDS011;4818;50.860;4.648;2022-11-25T06:13:07;11.77;;;1.10;;
9559;SDS011;4818;50.860;4.648;2022-11-25T06:15:34;6.60;;;1.15;;
9559;SDS011;4818;50.860;4.648;2022-11-25T06:18:04;6.00;;;1.42;;
9559;SDS011;4818;50.860;4.648;2022-11-25T06:20:31;5.00;;;1.23;;
9559;SDS011;4818;50.860;4.648;2022-11-25T06:22:57;9.10;;;0.90;;
9559;SDS011;4818;50.860;4.648;2022-11-25T06:25:23;12.60;;;0.95;;
9559;SDS011;4818;50.860;4.648;2022-11-25T06:27:50;8.65;;;0.90;;
9559;SDS011;4818;50.860;4.648;2022-11-25T06:30:16;13.60;;;1.00;;
9559;SDS011;4818;50.860;4.648;2022-11-25T06:32:42;8.75;;;0.95;;
9559;SDS011;4818;50.860;4.648;2022-11-25T06:35:09;6.13;;;0.65;;
9559;SDS011;4818;50.860;4.648;2022-11-25T06:37:35;6.45;;;1.00;;
9559;SDS011;4818;50.860;4.648;2022-11-25T06:40:02;15.13;;;1.83;;
9559;SDS011;4818;50.860;4.648;2022-11-25T06:42:29;10.80;;;1.23;;
9559;SDS011;4818;50.860;4.648;2022-11-25T06:44:55;9.85;;;0.80;;
9559;SDS011;4818;50.860;4.648;2022-11-25T06:47:22;13.93;;;1.15;;
9559;SDS011;4818;50.860;4.648;2022-11-25T06:49:48;3.28;;;0.60;;
9559;SDS011;4818;50.860;4.648;2022-11-25T06:52:14;4.47;;;0.90;;
9559;SDS011;4818;50.860;4.648;2022-11-25T06:54:41;6.97;;;0.73;;
9559;SDS011;4818;50.860;4.648;2022-11-25T06:57:10;5.43;;;0.70;;
9559;SDS011;4818;50.860;4.648;2022-11-25T06:59:37;8.05;;;1.15;;
9559;SDS011;4818;50.860;4.648;2022-11-25T07:02:03;6.05;;;0.75;;
9559;SDS011;4818;50.860;4.648;2022-11-25T07:04:30;8.32;;;1.23;;
9559;SDS011;4818;50.860;4.648;2022-11-25T07:06:56;7.82;;;1.05;;
9559;SDS011;4818;50.860;4.648;2022-11-25T07:09:22;11.18;;;1.58;;
9559;SDS011;4818;50.860;4.648;2022-11-25T07:11:49;8.10;;;1.48;;
9559;SDS011;4818;50.860;4.648;2022-11-25T07:14:15;10.85;;;1.85;;
9559;SDS011;4818;50.860;4.648;2022-11-25T07:16:42;8.25;;;1.25;;
9559;SDS011;4818;50.860;4.648;2022-11-25T07:19:10;12.75;;;1.00;;
9559;SDS011;4818;50.860;4.648;2022-11-25T07:21:36;11.20;;;1.10;;
9559;SDS011;4818;50.860;4.648;2022-11-25T07:24:04;11.70;;;1.58;;
9559;SDS011;4818;50.860;4.648;2022-11-25T07:26:31;6.50;;;1.25;;
9559;SDS011;4818;50.860;4.648;2022-11-25T07:28:59;13.02;;;1.08;;
9559;SDS011;4818;50.860;4.648;2022-11-25T07:31:27;6.53;;;1.23;;
9559;SDS011;4818;50.860;4.648;2022-11-25T07:33:54;6.32;;;1.27;;
9559;SDS011;4818;50.860;4.648;2022-11-25T07:36:21;10.15;;;1.10;;
9559;SDS011;4818;50.860;4.648;2022-11-25T07:38:48;12.80;;;1.65;;
9559;SDS011;4818;50.860;4.648;2022-11-25T07:41:15;6.68;;;1.15;;
9559;SDS011;4818;50.860;4.648;2022-11-25T07:44:00;10.75;;;1.63;;
9559;SDS011;4818;50.860;4.648;2022-11-25T07:46:31;12.93;;;2.08;;
9559;SDS011;4818;50.860;4.648;2022-11-25T07:48:59;11.00;;;1.65;;
9559;SDS011;4818;50.860;4.648;2022-11-25T07:51:27;13.90;;;2.00;;
9559;SDS011;4818;50.860;4.648;2022-11-25T07:53:54;17.10;;;1.85;;
9559;SDS011;4818;50.860;4.648;2022-11-25T07:56:21;15.65;;;2.25;;
9559;SDS011;4818;50.860;4.648;2022-11-25T07:58:47;11.05;;;2.53;;
9559;SDS011;4818;50.860;4.648;2022-11-25T08:01:14;19.15;;;3.40;;
9559;SDS011;4818;50.860;4.648;2022-11-25T08:03:42;23.40;;;3.78;;
9559;SDS011;4818;50.860;4.648;2022-11-25T08:06:10;23.15;;;2.50;;
9559;SDS011;4818;50.860;4.648;2022-11-25T08:08:36;18.10;;;2.80;;
9559;SDS011;4818;50.860;4.648;2022-11-25T08:11:10;14.77;;;3.10;;
9559;SDS011;4818;50.860;4.648;2022-11-25T08:13:36;10.02;;;1.70;;
9559;SDS011;4818;50.860;4.648;2022-11-25T08:16:03;10.10;;;1.92;;
9559;SDS011;4818;50.860;4.648;2022-11-25T08:18:30;7.18;;;1.38;;
9559;SDS011;4818;50.860;4.648;2022-11-25T08:20:57;8.82;;;2.03;;
9559;SDS011;4818;50.860;4.648;2022-11-25T08:23:24;13.90;;;1.30;;
9559;SDS011;4818;50.860;4.648;2022-11-25T08:25:51;11.57;;;1.13;;
9559;SDS011;4818;50.860;4.648;2022-11-25T08:28:17;5.40;;;0.95;;
9559;SDS011;4818;50.860;4.648;2022-11-25T08:30:43;6.03;;;0.93;;
9559;SDS011;4818;50.860;4.648;2022-11-25T08:33:09;7.25;;;0.80;;
9559;SDS011;4818;50.860;4.648;2022-11-25T08:35:35;7.85;;;0.93;;
9559;SDS011;4818;50.860;4.648;2022-11-25T08:38:06;11.38;;;0.90;;
9559;SDS011;4818;50.860;4.648;2022-11-25T08:40:33;6.85;;;1.10;;
9559;SDS011;4818;50.860;4.648;2022-11-25T08:43:00;12.82;;;1.42;;
9559;SDS011;4818;50.860;4.648;2022-11-25T08:45:26;4.38;;;1.10;;
9559;SDS011;4818;50.860;4.648;2022-11-25T08:47:52;9.55;;;1.08;;
9559;SDS011;4818;50.860;4.648;2022-11-25T08:50:19;9.10;;;1.00;;
9559;SDS011;4818;50.860;4.648;2022-11-25T08:52:45;9.23;;;1.00;;
9559;SDS011;4818;50.860;4.648;2022-11-25T08:55:11;10.70;;;1.10;;
9559;SDS011;4818;50.860;4.648;2022-11-25T08:57:37;11.02;;;1.50;;
9559;SDS011;4818;50.860;4.648;2022-11-25T09:00:04;8.13;;;1.23;;
9559;SDS011;4818;50.860;4.648;2022-11-25T09:02:31;9.10;;;1.38;;
9559;SDS011;4818;50.860;4.648;2022-11-25T09:04:57;7.95;;;1.02;;
9559;SDS011;4818;50.860;4.648;2022-11-25T09:07:23;9.23;;;0.80;;
9559;SDS011;4818;50.860;4.648;2022-11-25T09:09:49;9.48;;;1.05;;
9559;SDS011;4818;50.860;4.648;2022-11-25T09:12:16;7.57;;;1.35;;
9559;SDS011;4818;50.860;4.648;2022-11-25T09:14:42;8.63;;;1.13;;
9559;SDS011;4818;50.860;4.648;2022-11-25T09:17:09;4.97;;;0.90;;
9559;SDS011;4818;50.860;4.648;2022-11-25T09:19:36;7.03;;;0.75;;
9559;SDS011;4818;50.860;4.648;2022-11-25T09:22:02;6.65;;;1.13;;
9559;SDS011;4818;50.860;4.648;2022-11-25T09:24:28;9.82;;;1.27;;
9559;SDS011;4818;50.860;4.648;2022-11-25T09:26:55;12.38;;;1.65;;
9559;SDS011;4818;50.860;4.648;2022-11-25T09:29:21;6.60;;;0.98;;
9559;SDS011;4818;50.860;4.648;2022-11-25T09:31:47;7.38;;;0.90;;
9559;SDS011;4818;50.860;4.648;2022-11-25T09:34:14;7.20;;;1.00;;
9559;SDS011;4818;50.860;4.648;2022-11-25T09:36:42;13.95;;;2.55;;
9559;SDS011;4818;50.860;4.648;2022-11-25T09:39:08;5.15;;;0.55;;
9559;SDS011;4818;50.860;4.648;2022-11-25T09:41:41;8.23;;;0.82;;
9559;SDS011;4818;50.860;4.648;2022-11-25T09:55:20;3.13;;;0.43;;
9559;SDS011;4818;50.860;4.648;2022-11-25T10:00:40;2.63;;;0.30;;
9559;SDS011;4818;50.860;4.648;2022-11-25T10:05:37;1.42;;;0.20;;
9559;SDS011;4818;50.860;4.648;2022-11-25T10:08:09;2.30;;;0.55;;
9559;SDS011;4818;50.860;4.648;2022-11-25T10:10:43;3.40;;;0.43;;
9559;SDS011;4818;50.860;4.648;2022-11-25T10:13:22;5.03;;;0.47;;
9559;SDS011;4818;50.860;4.648;2022-11-25T10:15:49;2.05;;;0.30;;
9559;SDS011;4818;50.860;4.648;2022-11-25T10:20:52;1.75;;;0.30;;
9559;SDS011;4818;50.860;4.648;2022-11-25T10:23:23;5.20;;;0.35;;
9559;SDS011;4818;50.860;4.648;2022-11-25T10:25:52;6.85;;;0.50;;
9559;SDS011;4818;50.860;4.648;2022-11-25T10:28:21;2.70;;;0.33;;
9559;SDS011;4818;50.860;4.648;2022-11-25T10:33:21;6.50;;;0.70;;
9559;SDS011;4818;50.860;4.648;2022-11-25T10:36:03;8.60;;;0.50;;
9559;SDS011;4818;50.860;4.648;2022-11-25T10:38:40;7.28;;;0.75;;
9559;SDS011;4818;50.860;4.648;2022-11-25T10:41:15;10.35;;;0.85;;
9559;SDS011;4818;50.860;4.648;2022-11-25T10:43:42;3.75;;;0.50;;
9559;SDS011;4818;50.860;4.648;2022-11-25T10:49:00;6.75;;;0.30;;
9559;SDS011;4818;50.860;4.648;2022-11-25T10:56:55;13.98;;;0.70;;
9559;SDS011;4818;50.860;4.648;2022-11-25T11:01:51;4.10;;;0.20;;
9559;SDS011;4818;50.860;4.648;2022-11-25T11:04:17;1.45;;;0.20;;
9559;SDS011;4818;50.860;4.648;2022-11-25T11:06:46;3.35;;;0.73;;
9559;SDS011;4818;50.860;4.648;2022-11-25T11:11:51;2.67;;;0.20;;
9559;SDS011;4818;50.860;4.648;2022-11-25T11:14:18;3.97;;;0.30;;
9559;SDS011;4818;50.860;4.648;2022-11-25T11:16:54;2.00;;;0.13;;
9559;SDS011;4818;50.860;4.648;2022-11-25T11:19:22;2.70;;;0.20;;
9559;SDS011;4818;50.860;4.648;2022-11-25T11:21:49;2.60;;;0.30;;
9559;SDS011;4818;50.860;4.648;2022-11-25T11:26:48;3.13;;;0.30;;
9559;SDS011;4818;50.860;4.648;2022-11-25T11:29:28;6.65;;;0.70;;
9559;SDS011;4818;50.860;4.648;2022-11-25T11:31:58;5.00;;;0.30;;
9559;SDS011;4818;50.860;4.648;2022-11-25T11:39:32;4.47;;;0.40;;
9559;SDS011;4818;50.860;4.648;2022-11-25T11:42:06;1.98;;;0.38;;
9559;SDS011;4818;50.860;4.648;2022-11-25T11:44:44;3.40;;;0.45;;
9559;SDS011;4818;50.860;4.648;2022-11-25T11:55:00;14.05;;;0.75;;
9559;SDS011;4818;50.860;4.648;2022-11-25T11:57:34;25.60;;;1.27;;
9559;SDS011;4818;50.860;4.648;2022-11-25T12:00:03;9.77;;;0.40;;
9559;SDS011;4818;50.860;4.648;2022-11-25T12:02:41;6.13;;;0.65;;
9559;SDS011;4818;50.860;4.648;2022-11-25T12:12:54;7.28;;;0.80;;
9559;SDS011;4818;50.860;4.648;2022-11-25T12:15:19;7.30;;;0.50;;
9559;SDS011;4818;50.860;4.648;2022-11-25T12:17:50;5.20;;;0.88;;
9559;SDS011;4818;50.860;4.648;2022-11-25T12:20:24;6.70;;;0.40;;
9559;SDS011;4818;50.860;4.648;2022-11-25T12:22:57;5.55;;;0.65;;
9559;SDS011;4818;50.860;4.648;2022-11-25T12:25:26;3.88;;;0.50;;
9559;SDS011;4818;50.860;4.648;2022-11-25T12:30:21;8.68;;;0.77;;
9559;SDS011;4818;50.860;4.648;2022-11-25T12:33:09;4.80;;;0.40;;
9559;SDS011;4818;50.860;4.648;2022-11-25T12:38:31;5.53;;;0.65;;
9559;SDS011;4818;50.860;4.648;2022-11-25T12:48:48;10.40;;;0.95;;
9559;SDS011;4818;50.860;4.648;2022-11-25T12:51:37;9.80;;;0.68;;
9559;SDS011;4818;50.860;4.648;2022-11-25T12:54:52;8.90;;;0.90;;
9559;SDS011;4818;50.860;4.648;2022-11-25T13:05:02;4.35;;;0.68;;
9559;SDS011;4818;50.860;4.648;2022-11-25T13:10:35;10.80;;;0.95;;
9559;SDS011;4818;50.860;4.648;2022-11-25T13:15:39;12.57;;;1.42;;
9559;SDS011;4818;50.860;4.648;2022-11-25T13:18:08;18.85;;;1.08;;
9559;SDS011;4818;50.860;4.648;2022-11-25T13:20:38;7.55;;;1.63;;
9559;SDS011;4818;50.860;4.648;2022-11-25T13:25:33;7.88;;;1.30;;
9559;SDS011;4818;50.860;4.648;2022-11-25T13:30:44;9.25;;;0.75;;
9559;SDS011;4818;50.860;4.648;2022-11-25T13:35:54;8.73;;;1.05;;
9559;SDS011;4818;50.860;4.648;2022-11-25T13:38:38;11.30;;;0.80;;
9559;SDS011;4818;50.860;4.648;2022-11-25T13:49:04;6.45;;;0.70;;
9559;SDS011;4818;50.860;4.648;2022-11-25T13:51:31;7.55;;;1.20;;
9559;SDS011;4818;50.860;4.648;2022-11-25T13:53:59;11.82;;;1.35;;
9559;SDS011;4818;50.860;4.648;2022-11-25T13:56:30;9.20;;;1.33;;
9559;SDS011;4818;50.860;4.648;2022-11-25T14:01:39;7.97;;;1.45;;
9559;SDS011;4818;50.860;4.648;2022-11-25T14:04:06;10.10;;;1.60;;
9559;SDS011;4818;50.860;4.648;2022-11-25T14:06:42;6.43;;;1.00;;
9559;SDS011;4818;50.860;4.648;2022-11-25T14:14:37;11.27;;;1.48;;
9559;SDS011;4818;50.860;4.648;2022-11-25T14:20:04;11.23;;;1.75;;
9559;SDS011;4818;50.860;4.648;2022-11-25T14:25:22;14.38;;;1.33;;
9559;SDS011;4818;50.860;4.648;2022-11-25T14:27:58;12.13;;;1.05;;
9559;SDS011;4818;50.860;4.648;2022-11-25T14:30:25;8.18;;;1.73;;
9559;SDS011;4818;50.860;4.648;2022-11-25T14:32:55;6.40;;;0.70;;
9559;SDS011;4818;50.860;4.648;2022-11-25T14:35:38;14.82;;;1.85;;
9559;SDS011;4818;50.860;4.648;2022-11-25T14:38:07;10.65;;;1.38;;
9559;SDS011;4818;50.860;4.648;2022-11-25T14:40:48;7.43;;;0.80;;
9559;SDS011;4818;50.860;4.648;2022-11-25T14:43:17;9.32;;;1.20;;
9559;SDS011;4818;50.860;4.648;2022-11-25T14:45:45;16.02;;;1.83;;
9559;SDS011;4818;50.860;4.648;2022-11-25T14:48:20;12.23;;;1.40;;
9559;SDS011;4818;50.860;4.648;2022-11-25T14:50:57;8.18;;;0.85;;
9559;SDS011;4818;50.860;4.648;2022-11-25T14:53:23;12.85;;;1.42;;
9559;SDS011;4818;50.860;4.648;2022-11-25T14:55:50;13.13;;;1.30;;
9559;SDS011;4818;50.860;4.648;2022-11-25T14:58:22;12.70;;;1.40;;
9559;SDS011;4818;50.860;4.648;2022-11-25T15:00:50;5.35;;;1.10;;
9559;SDS011;4818;50.860;4.648;2022-11-25T15:03:17;4.93;;;0.77;;
9559;SDS011;4818;50.860;4.648;2022-11-25T15:05:44;9.13;;;1.00;;
9559;SDS011;4818;50.860;4.648;2022-11-25T15:08:18;13.23;;;2.10;;
9559;SDS011;4818;50.860;4.648;2022-11-25T15:13:23;11.27;;;1.23;;
9559;SDS011;4818;50.860;4.648;2022-11-25T15:15:51;13.75;;;1.35;;
9559;SDS011;4818;50.860;4.648;2022-11-25T15:18:20;12.60;;;0.95;;
9559;SDS011;4818;50.860;4.648;2022-11-25T15:20:47;10.02;;;1.05;;
9559;SDS011;4818;50.860;4.648;2022-11-25T15:23:17;11.40;;;1.63;;
9559;SDS011;4818;50.860;4.648;2022-11-25T15:25:48;13.02;;;1.52;;
9559;SDS011;4818;50.860;4.648;2022-11-25T15:28:15;14.05;;;1.38;;
9559;SDS011;4818;50.860;4.648;2022-11-25T15:30:41;9.02;;;1.17;;
9559;SDS011;4818;50.860;4.648;2022-11-25T15:33:08;10.82;;;1.55;;
9559;SDS011;4818;50.860;4.648;2022-11-25T15:35:35;7.97;;;0.80;;
9559;SDS011;4818;50.860;4.648;2022-11-25T15:40:56;10.40;;;0.90;;
9559;SDS011;4818;50.860;4.648;2022-11-25T15:43:23;11.05;;;1.42;;
9559;SDS011;4818;50.860;4.648;2022-11-25T15:45:50;16.60;;;2.13;;
9559;SDS011;4818;50.860;4.648;2022-11-25T15:48:21;9.68;;;1.33;;
9559;SDS011;4818;50.860;4.648;2022-11-25T15:50:50;12.02;;;1.35;;
9559;SDS011;4818;50.860;4.648;2022-11-25T15:53:20;15.60;;;1.40;;
9559;SDS011;4818;50.860;4.648;2022-11-25T15:55:48;8.90;;;1.45;;
9559;SDS011;4818;50.860;4.648;2022-11-25T16:01:00;9.23;;;1.48;;
9559;SDS011;4818;50.860;4.648;2022-11-25T16:03:26;16.67;;;1.80;;
9559;SDS011;4818;50.860;4.648;2022-11-25T16:05:56;11.38;;;1.10;;
9559;SDS011;4818;50.860;4.648;2022-11-25T16:08:29;10.32;;;1.70;;
9559;SDS011;4818;50.860;4.648;2022-11-25T16:10:57;11.60;;;1.50;;
9559;SDS011;4818;50.860;4.648;2022-11-25T16:13:32;10.02;;;1.65;;
9559;SDS011;4818;50.860;4.648;2022-11-25T16:26:50;9.07;;;1.00;;
9559;SDS011;4818;50.860;4.648;2022-11-25T16:29:17;9.05;;;1.38;;
9559;SDS011;4818;50.860;4.648;2022-11-25T16:31:44;14.55;;;2.75;;
9559;SDS011;4818;50.860;4.648;2022-11-25T16:34:17;14.45;;;2.70;;
9559;SDS011;4818;50.860;4.648;2022-11-25T16:36:44;9.68;;;1.50;;
9559;SDS011;4818;50.860;4.648;2022-11-25T16:39:10;11.10;;;1.50;;
9559;SDS011;4818;50.860;4.648;2022-11-25T16:41:37;10.38;;;1.10;;
9559;SDS011;4818;50.860;4.648;2022-11-25T16:44:03;14.63;;;1.88;;
9559;SDS011;4818;50.860;4.648;2022-11-25T16:46:30;11.68;;;2.25;;
9559;SDS011;4818;50.860;4.648;2022-11-25T16:48:56;19.55;;;2.03;;
9559;SDS011;4818;50.860;4.648;2022-11-25T16:51:22;15.95;;;1.92;;
9559;SDS011;4818;50.860;4.648;2022-11-25T16:53:49;11.38;;;2.05;;
9559;SDS011;4818;50.860;4.648;2022-11-25T16:56:23;15.70;;;1.85;;
9559;SDS011;4818;50.860;4.648;2022-11-25T16:58:51;13.40;;;1.73;;
9559;SDS011;4818;50.860;4.648;2022-11-25T17:01:18;13.70;;;2.63;;
9559;SDS011;4818;50.860;4.648;2022-11-25T17:03:46;13.55;;;2.15;;
9559;SDS011;4818;50.860;4.648;2022-11-25T17:06:13;9.68;;;1.92;;
9559;SDS011;4818;50.860;4.648;2022-11-25T17:08:40;10.25;;;1.42;;
9559;SDS011;4818;50.860;4.648;2022-11-25T17:11:09;20.52;;;2.65;;
9559;SDS011;4818;50.860;4.648;2022-11-25T17:13:37;9.10;;;1.63;;
9559;SDS011;4818;50.860;4.648;2022-11-25T17:16:07;10.18;;;1.73;;
9559;SDS011;4818;50.860;4.648;2022-11-25T17:18:34;19.83;;;1.85;;
9559;SDS011;4818;50.860;4.648;2022-11-25T17:21:01;18.20;;;2.47;;
9559;SDS011;4818;50.860;4.648;2022-11-25T17:23:27;20.02;;;2.53;;
9559;SDS011;4818;50.860;4.648;2022-11-25T17:25:53;9.18;;;2.28;;
9559;SDS011;4818;50.860;4.648;2022-11-25T17:28:20;12.43;;;2.13;;
9559;SDS011;4818;50.860;4.648;2022-11-25T17:30:46;10.02;;;2.38;;
9559;SDS011;4818;50.860;4.648;2022-11-25T17:33:17;16.45;;;2.08;;